El Moro, Colorado
Current Conditions -  °F | °C
As of 1:54 PM on Friday 19 Dec 2014 (Local Time) from KTAD Reporting Station
Clear Clear  
Wind Chill: 43°   Ceiling: Unl
Heat Index: 47°   Visibility: 10mi
Dew Point: 14°   Wind: 9mph
Humidity: 27%   Direction: 90°E
Pressure: 30.02"   Gusts: NA
Location:  37.1661°N, 104.486°W
Report Text: KTAD 192054Z AUTO 09008KT 10SM CLR 08/M10 A3002 RMK AO2 SLP158 T00831100 56024
Loading
Personal Weather Stations






























Interactive Weather Map New forecast layout! Learn more

10-Day Weather Forecast

Advertisements
Track Severe Weather on mobile